Terminal Aerodrome Forecast
Issued by NWS

Home | Current Version | Previous Version | Text Only | Print | Product List | Glossary On
Versions: 1 2 3 4 5 6 7 8 9 10 11 12 13 14 15 16
000
FTUS43 KICT 180753 AAA
TAFHUT
TAF AMD
KHUT 180753Z 1808/1906 12005KT P6SM VCTS SCT040CB OVC080
      TEMPO 1808/1811 TSRA BKN040CB OVC080
     FM181100 15006KT P6SM SCT030 BKN035
     FM181600 15014G22KT P6SM SCT035 BKN070
     FM182100 16015G24KT P6SM VCTS SCT020 BKN035CB=

USA.gov is the U.S. government's official web portal to all federal, state and local government web resources and services.